Kingsville, TX

8:22 AM CST on November 22, 2014 (GMT -0600)
Kingsville Naval Air Station | Change Station
CLOSE
Current Station
Airport
Location: Kingsville NAS,
Elevation: 49 ft
Nearby Weather Stations

Elev 49 ft 27.51 °N, 97.81 °W | Updated 13 minutes ago

Overcast
Overcast
71 °F
Feels Like 71 °F
N
9
Wind Variable Wind from SE

Today
High -- | Low -- °F
--% Chance of Precip.
Yesterday
High -- | Low -- °F
Precip. -- in
6:57 AM 5:37 PM
New Moon, 0% visible
Pressure 29.94 in
Visibility 10.0 miles
Clouds Scattered Clouds 1200 ft
Scattered Clouds 1900 ft
Mostly Cloudy 4200 ft
Dew Point 70 °F
Humidity 96%
Rainfall 0.02 in
Snow Depth Not available.
UV 0 out of 12
Pollen 1.50 out of 12
Air Quality Not available.
Flu Activity Not available.
SPECI KNQI 221409Z AUTO 14008KT 10SM SCT012 SCT019 BKN042 22/21 A2994 RMK AO2 RAE1357 P0000 T02170211 $

More Conditions Fewer Conditions

Pressure 29.94 in
Visibility 10.0 miles
Clouds Scattered Clouds 1200 ft
Scattered Clouds 1900 ft
Mostly Cloudy 4200 ft
Dew Point 70 °F
Humidity 96%
Rainfall 0.02 in
Snow Depth Not available.
UV 0 out of 12
Pollen 1.50 out of 12
Air Quality Not available.
Flu Activity Not available.
SPECI KNQI 221409Z AUTO 14008KT 10SM SCT012 SCT019 BKN042 22/21 A2994 RMK AO2 RAE1357 P0000 T02170211 $

More Conditions Fewer Conditions

Nowcast | as of 7:24 am CST on November 22, 2014

Scattered showers and isolated thunderstorms will impact south Texas this morning. Through 10 am CST...the thunderstorms will be capable of producing brief heavy downpours...small hail...gusts to 40 miles an hour...and frequent cloud to ground lightning. Rainfall amounts in and near the thunderstorms can easily exceed a half of an inch.

×

10-Day Weather Forecast

Almanac

Astronomy

Nov. 22, 2014 Rise Set
Actual Time
Civil Twilight
Nautical Twilight
Astronomical Twilight
Moon
Length of Visible Light
Length of Day
Tomorrow will be .
, % of the Moon is Illuminated

Today's Extremes

State Highs State Lows

Community

WunderPhotos

Upload Photos

1,772,820 photos uploaded!

WunderBlogs® & News

Nearby

Air Quality

  Air Quality AQ Index Pollutant
Not available.

Snow Depth

Station Depth Elevation

Earthquake Activity

City Distance Mag. Time & Date
Minimum magnitude displayed is 2.5.

Coastal Water Temperatures

Place Temperature

Nearby Weather Stations